Paulding, Mississippi
Current Conditions -  °F | °C
As of 3:58 AM on Sunday 21 Dec 2014 (Local Time) from KMEI Reporting Station
Clear Clear  
Wind Chill: 33°   Ceiling: Unl
Heat Index: 33°   Visibility: 10mi
Dew Point: 31°   Wind: 3mph
Humidity: 92%   Direction: 10°N
Pressure: 30.16"   Gusts: NA
Location:  32.03°N, 89.04°W
Report Text: KMEI 210958Z AUTO 01003KT 10SM CLR 01/M01 A3016 RMK AO2 SLP213 T00061006
Loading
Personal Weather Stations






























Interactive Weather Map New forecast layout! Learn more

10-Day Weather Forecast

Advertisements
Track Severe Weather on mobile